sensor_id;sensor_type;location;lat;lon;timestamp;temperature;humidity
7762;DHT22;3925;48.636;9.516;2023-04-15T00:02:15;6.00;99.90
7762;DHT22;3925;48.636;9.516;2023-04-15T00:04:43;6.00;99.90
7762;DHT22;3925;48.636;9.516;2023-04-15T00:07:10;6.00;99.90
7762;DHT22;3925;48.636;9.516;2023-04-15T00:09:37;5.90;99.90
7762;DHT22;3925;48.636;9.516;2023-04-15T00:12:04;6.00;99.90
7762;DHT22;3925;48.636;9.516;2023-04-15T00:14:32;6.10;99.90
7762;DHT22;3925;48.636;9.516;2023-04-15T00:16:59;5.90;99.90
7762;DHT22;3925;48.636;9.516;2023-04-15T00:19:27;5.90;99.90
7762;DHT22;3925;48.636;9.516;2023-04-15T00:21:54;6.10;99.90
7762;DHT22;3925;48.636;9.516;2023-04-15T00:24:21;6.20;99.90
7762;DHT22;3925;48.636;9.516;2023-04-15T00:26:48;6.20;99.90
7762;DHT22;3925;48.636;9.516;2023-04-15T00:29:15;6.00;99.90
7762;DHT22;3925;48.636;9.516;2023-04-15T00:31:42;6.00;99.90
7762;DHT22;3925;48.636;9.516;2023-04-15T00:34:09;5.90;99.90
7762;DHT22;3925;48.636;9.516;2023-04-15T00:36:37;5.90;99.90
7762;DHT22;3925;48.636;9.516;2023-04-15T00:39:04;6.00;99.90
7762;DHT22;3925;48.636;9.516;2023-04-15T00:41:31;6.10;99.90
7762;DHT22;3925;48.636;9.516;2023-04-15T00:43:58;6.20;99.90
7762;DHT22;3925;48.636;9.516;2023-04-15T00:46:27;6.10;99.90
7762;DHT22;3925;48.636;9.516;2023-04-15T00:48:56;6.00;99.90
7762;DHT22;3925;48.636;9.516;2023-04-15T00:51:23;6.00;99.90
7762;DHT22;3925;48.636;9.516;2023-04-15T00:53:51;6.00;99.90
7762;DHT22;3925;48.636;9.516;2023-04-15T00:56:19;6.10;99.90
7762;DHT22;3925;48.636;9.516;2023-04-15T00:58:49;6.20;99.90
7762;DHT22;3925;48.636;9.516;2023-04-15T01:01:18;6.30;99.90
7762;DHT22;3925;48.636;9.516;2023-04-15T01:03:46;6.30;99.90
7762;DHT22;3925;48.636;9.516;2023-04-15T01:06:14;5.90;99.90
7762;DHT22;3925;48.636;9.516;2023-04-15T01:08:42;5.50;99.90
7762;DHT22;3925;48.636;9.516;2023-04-15T01:11:11;5.30;99.90
7762;DHT22;3925;48.636;9.516;2023-04-15T01:13:39;5.30;99.90
7762;DHT22;3925;48.636;9.516;2023-04-15T01:16:06;5.50;99.90
7762;DHT22;3925;48.636;9.516;2023-04-15T01:18:34;5.40;99.90
7762;DHT22;3925;48.636;9.516;2023-04-15T01:21:02;5.50;99.90
7762;DHT22;3925;48.636;9.516;2023-04-15T01:23:30;5.60;99.90
7762;DHT22;3925;48.636;9.516;2023-04-15T01:25:59;5.70;99.90
7762;DHT22;3925;48.636;9.516;2023-04-15T01:28:26;5.70;99.90
7762;DHT22;3925;48.636;9.516;2023-04-15T01:31:05;5.60;99.90
7762;DHT22;3925;48.636;9.516;2023-04-15T01:33:32;5.50;99.90
7762;DHT22;3925;48.636;9.516;2023-04-15T01:35:59;5.60;99.90
7762;DHT22;3925;48.636;9.516;2023-04-15T01:38:27;5.80;99.90
7762;DHT22;3925;48.636;9.516;2023-04-15T01:40:54;5.80;99.90
7762;DHT22;3925;48.636;9.516;2023-04-15T01:43:23;6.00;99.90
7762;DHT22;3925;48.636;9.516;2023-04-15T01:45:49;5.90;99.90
7762;DHT22;3925;48.636;9.516;2023-04-15T01:48:16;6.00;99.90
7762;DHT22;3925;48.636;9.516;2023-04-15T01:50:43;5.80;99.90
7762;DHT22;3925;48.636;9.516;2023-04-15T01:53:10;5.70;99.90
7762;DHT22;3925;48.636;9.516;2023-04-15T01:55:37;5.50;99.90
7762;DHT22;3925;48.636;9.516;2023-04-15T01:58:04;5.50;99.90
7762;DHT22;3925;48.636;9.516;2023-04-15T02:00:32;5.30;99.90
7762;DHT22;3925;48.636;9.516;2023-04-15T02:02:59;5.30;99.90
7762;DHT22;3925;48.636;9.516;2023-04-15T02:05:26;5.00;99.90
7762;DHT22;3925;48.636;9.516;2023-04-15T02:07:53;5.10;99.90
7762;DHT22;3925;48.636;9.516;2023-04-15T02:10:20;5.20;99.90
7762;DHT22;3925;48.636;9.516;2023-04-15T02:12:47;5.20;99.90
7762;DHT22;3925;48.636;9.516;2023-04-15T02:15:14;5.10;99.90
7762;DHT22;3925;48.636;9.516;2023-04-15T02:17:43;5.20;99.90
7762;DHT22;3925;48.636;9.516;2023-04-15T02:20:15;5.30;99.90
7762;DHT22;3925;48.636;9.516;2023-04-15T02:22:42;5.20;99.90
7762;DHT22;3925;48.636;9.516;2023-04-15T02:25:09;5.10;99.90
7762;DHT22;3925;48.636;9.516;2023-04-15T02:27:36;5.00;99.90
7762;DHT22;3925;48.636;9.516;2023-04-15T02:30:03;5.00;99.90
7762;DHT22;3925;48.636;9.516;2023-04-15T02:32:31;4.90;99.90
7762;DHT22;3925;48.636;9.516;2023-04-15T02:35:03;4.90;99.90
7762;DHT22;3925;48.636;9.516;2023-04-15T02:37:30;5.00;99.90
7762;DHT22;3925;48.636;9.516;2023-04-15T02:40:00;4.80;99.90
7762;DHT22;3925;48.636;9.516;2023-04-15T02:42:27;4.80;99.90
7762;DHT22;3925;48.636;9.516;2023-04-15T02:44:54;4.80;99.90
7762;DHT22;3925;48.636;9.516;2023-04-15T02:47:22;4.80;99.90
7762;DHT22;3925;48.636;9.516;2023-04-15T02:49:49;4.70;99.90
7762;DHT22;3925;48.636;9.516;2023-04-15T02:52:17;5.00;99.90
7762;DHT22;3925;48.636;9.516;2023-04-15T02:54:44;4.90;99.90
7762;DHT22;3925;48.636;9.516;2023-04-15T02:57:11;5.00;99.90
7762;DHT22;3925;48.636;9.516;2023-04-15T02:59:38;5.00;99.90
7762;DHT22;3925;48.636;9.516;2023-04-15T03:02:05;5.10;99.90
7762;DHT22;3925;48.636;9.516;2023-04-15T03:04:33;5.00;99.90
7762;DHT22;3925;48.636;9.516;2023-04-15T03:07:00;4.50;99.90
7762;DHT22;3925;48.636;9.516;2023-04-15T03:09:28;4.60;99.90
7762;DHT22;3925;48.636;9.516;2023-04-15T03:11:55;4.50;99.90
7762;DHT22;3925;48.636;9.516;2023-04-15T03:14:22;4.30;99.90
7762;DHT22;3925;48.636;9.516;2023-04-15T03:16:48;4.20;99.90
7762;DHT22;3925;48.636;9.516;2023-04-15T03:19:16;4.60;99.90
7762;DHT22;3925;48.636;9.516;2023-04-15T03:21:43;5.00;99.90
7762;DHT22;3925;48.636;9.516;2023-04-15T03:24:10;5.10;99.90
7762;DHT22;3925;48.636;9.516;2023-04-15T03:26:38;5.20;99.90
7762;DHT22;3925;48.636;9.516;2023-04-15T03:29:05;5.10;99.90
7762;DHT22;3925;48.636;9.516;2023-04-15T03:31:32;5.00;99.90
7762;DHT22;3925;48.636;9.516;2023-04-15T03:33:58;5.00;99.90
7762;DHT22;3925;48.636;9.516;2023-04-15T03:36:27;5.10;99.90
7762;DHT22;3925;48.636;9.516;2023-04-15T03:38:54;5.10;99.90
7762;DHT22;3925;48.636;9.516;2023-04-15T03:41:22;4.90;99.90
7762;DHT22;3925;48.636;9.516;2023-04-15T03:43:50;5.10;99.90
7762;DHT22;3925;48.636;9.516;2023-04-15T03:46:17;5.10;99.90
7762;DHT22;3925;48.636;9.516;2023-04-15T03:48:44;5.10;99.90
7762;DHT22;3925;48.636;9.516;2023-04-15T03:51:11;4.90;99.90
7762;DHT22;3925;48.636;9.516;2023-04-15T03:53:37;4.80;99.90
7762;DHT22;3925;48.636;9.516;2023-04-15T03:58:35;4.80;99.90
7762;DHT22;3925;48.636;9.516;2023-04-15T04:01:03;4.80;99.90
7762;DHT22;3925;48.636;9.516;2023-04-15T04:03:30;4.80;99.90
7762;DHT22;3925;48.636;9.516;2023-04-15T04:05:57;4.80;99.90
7762;DHT22;3925;48.636;9.516;2023-04-15T04:08:25;4.90;99.90
7762;DHT22;3925;48.636;9.516;2023-04-15T04:10:52;4.90;99.90
7762;DHT22;3925;48.636;9.516;2023-04-15T04:13:19;4.90;99.90
7762;DHT22;3925;48.636;9.516;2023-04-15T04:15:46;5.00;99.90
7762;DHT22;3925;48.636;9.516;2023-04-15T04:18:14;5.00;99.90
7762;DHT22;3925;48.636;9.516;2023-04-15T04:20:41;4.80;99.90
7762;DHT22;3925;48.636;9.516;2023-04-15T04:23:08;4.80;99.90
7762;DHT22;3925;48.636;9.516;2023-04-15T04:25:35;4.80;99.90
7762;DHT22;3925;48.636;9.516;2023-04-15T04:28:02;4.90;99.90
7762;DHT22;3925;48.636;9.516;2023-04-15T04:30:29;4.80;99.90
7762;DHT22;3925;48.636;9.516;2023-04-15T04:32:55;4.70;99.90
7762;DHT22;3925;48.636;9.516;2023-04-15T04:35:24;4.60;99.90
7762;DHT22;3925;48.636;9.516;2023-04-15T04:37:50;4.50;99.90
7762;DHT22;3925;48.636;9.516;2023-04-15T04:40:18;4.40;99.90
7762;DHT22;3925;48.636;9.516;2023-04-15T04:42:45;4.30;99.90
7762;DHT22;3925;48.636;9.516;2023-04-15T04:45:12;4.20;99.90
7762;DHT22;3925;48.636;9.516;2023-04-15T04:47:39;4.30;99.90
7762;DHT22;3925;48.636;9.516;2023-04-15T04:50:07;4.20;99.90
7762;DHT22;3925;48.636;9.516;2023-04-15T04:52:36;4.20;99.90
7762;DHT22;3925;48.636;9.516;2023-04-15T04:55:03;4.20;99.90
7762;DHT22;3925;48.636;9.516;2023-04-15T04:57:30;4.20;99.90
7762;DHT22;3925;48.636;9.516;2023-04-15T04:59:57;4.20;99.90
7762;DHT22;3925;48.636;9.516;2023-04-15T05:02:23;4.20;99.90
7762;DHT22;3925;48.636;9.516;2023-04-15T05:04:51;4.20;99.90
7762;DHT22;3925;48.636;9.516;2023-04-15T05:07:19;4.40;99.90
7762;DHT22;3925;48.636;9.516;2023-04-15T05:09:48;4.30;99.90
7762;DHT22;3925;48.636;9.516;2023-04-15T05:12:15;4.40;99.90
7762;DHT22;3925;48.636;9.516;2023-04-15T05:14:43;4.50;99.90
7762;DHT22;3925;48.636;9.516;2023-04-15T05:17:11;4.60;99.90
7762;DHT22;3925;48.636;9.516;2023-04-15T05:19:38;4.70;99.90
7762;DHT22;3925;48.636;9.516;2023-04-15T05:22:05;4.80;99.90
7762;DHT22;3925;48.636;9.516;2023-04-15T05:24:32;4.90;99.90
7762;DHT22;3925;48.636;9.516;2023-04-15T05:27:00;5.10;99.90
7762;DHT22;3925;48.636;9.516;2023-04-15T05:29:27;5.20;99.90
7762;DHT22;3925;48.636;9.516;2023-04-15T05:31:54;5.40;99.90
7762;DHT22;3925;48.636;9.516;2023-04-15T05:34:21;5.50;99.90
7762;DHT22;3925;48.636;9.516;2023-04-15T05:36:48;5.60;99.90
7762;DHT22;3925;48.636;9.516;2023-04-15T05:39:15;5.80;99.90
7762;DHT22;3925;48.636;9.516;2023-04-15T05:41:42;6.40;99.90
7762;DHT22;3925;48.636;9.516;2023-04-15T05:44:10;7.00;99.90
7762;DHT22;3925;48.636;9.516;2023-04-15T05:46:37;8.10;99.90
7762;DHT22;3925;48.636;9.516;2023-04-15T05:49:04;9.30;99.90
7762;DHT22;3925;48.636;9.516;2023-04-15T05:51:31;10.60;99.90
7762;DHT22;3925;48.636;9.516;2023-04-15T05:53:58;12.00;99.90
7762;DHT22;3925;48.636;9.516;2023-04-15T05:56:25;13.00;97.90
7762;DHT22;3925;48.636;9.516;2023-04-15T05:58:52;13.30;95.70
7762;DHT22;3925;48.636;9.516;2023-04-15T06:01:20;13.40;94.50
7762;DHT22;3925;48.636;9.516;2023-04-15T06:03:47;13.30;94.40
7762;DHT22;3925;48.636;9.516;2023-04-15T06:06:14;12.90;93.70
7762;DHT22;3925;48.636;9.516;2023-04-15T06:08:41;13.10;93.90
7762;DHT22;3925;48.636;9.516;2023-04-15T06:11:08;13.20;94.00
7762;DHT22;3925;48.636;9.516;2023-04-15T06:13:35;13.30;93.50
7762;DHT22;3925;48.636;9.516;2023-04-15T06:16:02;14.10;92.30
7762;DHT22;3925;48.636;9.516;2023-04-15T06:18:31;14.60;90.50
7762;DHT22;3925;48.636;9.516;2023-04-15T06:20:57;14.20;90.30
7762;DHT22;3925;48.636;9.516;2023-04-15T06:23:24;14.40;90.20
7762;DHT22;3925;48.636;9.516;2023-04-15T06:25:51;13.70;91.30
7762;DHT22;3925;48.636;9.516;2023-04-15T06:28:18;13.80;91.50
7762;DHT22;3925;48.636;9.516;2023-04-15T06:30:45;13.60;90.40
7762;DHT22;3925;48.636;9.516;2023-04-15T06:33:12;13.20;91.50
7762;DHT22;3925;48.636;9.516;2023-04-15T06:35:40;12.80;92.30
7762;DHT22;3925;48.636;9.516;2023-04-15T06:38:07;12.70;93.20
7762;DHT22;3925;48.636;9.516;2023-04-15T06:40:34;12.90;94.00
7762;DHT22;3925;48.636;9.516;2023-04-15T06:43:01;13.10;93.50
7762;DHT22;3925;48.636;9.516;2023-04-15T06:45:29;13.00;93.30
7762;DHT22;3925;48.636;9.516;2023-04-15T06:47:56;12.90;93.20
7762;DHT22;3925;48.636;9.516;2023-04-15T06:50:23;13.40;92.90
7762;DHT22;3925;48.636;9.516;2023-04-15T06:52:52;14.20;91.60
7762;DHT22;3925;48.636;9.516;2023-04-15T06:55:19;15.00;91.30
7762;DHT22;3925;48.636;9.516;2023-04-15T06:57:46;15.30;90.00
7762;DHT22;3925;48.636;9.516;2023-04-15T07:00:13;14.90;87.00
7762;DHT22;3925;48.636;9.516;2023-04-15T07:02:40;13.90;89.40
7762;DHT22;3925;48.636;9.516;2023-04-15T07:05:07;13.70;90.30
7762;DHT22;3925;48.636;9.516;2023-04-15T07:07:34;13.70;89.40
7762;DHT22;3925;48.636;9.516;2023-04-15T07:10:04;13.50;90.20
7762;DHT22;3925;48.636;9.516;2023-04-15T07:12:31;13.10;91.00
7762;DHT22;3925;48.636;9.516;2023-04-15T07:14:57;13.10;91.60
7762;DHT22;3925;48.636;9.516;2023-04-15T07:17:24;13.70;91.00
7762;DHT22;3925;48.636;9.516;2023-04-15T07:19:51;14.10;90.50
7762;DHT22;3925;48.636;9.516;2023-04-15T07:22:18;14.50;88.90
7762;DHT22;3925;48.636;9.516;2023-04-15T07:24:45;14.80;86.10
7762;DHT22;3925;48.636;9.516;2023-04-15T07:27:13;15.00;88.00
7762;DHT22;3925;48.636;9.516;2023-04-15T07:29:40;14.60;87.40
7762;DHT22;3925;48.636;9.516;2023-04-15T07:32:07;13.90;88.20
7762;DHT22;3925;48.636;9.516;2023-04-15T07:34:35;13.60;90.00
7762;DHT22;3925;48.636;9.516;2023-04-15T07:37:02;12.70;91.80
7762;DHT22;3925;48.636;9.516;2023-04-15T07:39:28;13.20;92.40
7762;DHT22;3925;48.636;9.516;2023-04-15T07:41:56;13.10;92.40
7762;DHT22;3925;48.636;9.516;2023-04-15T07:44:25;13.50;93.90
7762;DHT22;3925;48.636;9.516;2023-04-15T07:46:52;13.90;93.60
7762;DHT22;3925;48.636;9.516;2023-04-15T07:49:19;14.20;92.70
7762;DHT22;3925;48.636;9.516;2023-04-15T07:51:46;14.80;91.80
7762;DHT22;3925;48.636;9.516;2023-04-15T07:54:13;15.40;91.80
7762;DHT22;3925;48.636;9.516;2023-04-15T07:56:40;16.50;91.30
7762;DHT22;3925;48.636;9.516;2023-04-15T07:59:07;17.50;87.30
7762;DHT22;3925;48.636;9.516;2023-04-15T08:01:35;19.60;83.10
7762;DHT22;3925;48.636;9.516;2023-04-15T08:04:03;22.10;76.50
7762;DHT22;3925;48.636;9.516;2023-04-15T08:06:30;23.80;63.70
7762;DHT22;3925;48.636;9.516;2023-04-15T08:08:57;24.70;55.40
7762;DHT22;3925;48.636;9.516;2023-04-15T08:11:24;26.30;51.20
7762;DHT22;3925;48.636;9.516;2023-04-15T08:13:51;27.90;48.50
7762;DHT22;3925;48.636;9.516;2023-04-15T08:16:20;28.40;45.40
7762;DHT22;3925;48.636;9.516;2023-04-15T08:18:50;28.40;44.00
7762;DHT22;3925;48.636;9.516;2023-04-15T08:21:18;28.10;42.90
7762;DHT22;3925;48.636;9.516;2023-04-15T08:23:47;27.90;41.20
7762;DHT22;3925;48.636;9.516;2023-04-15T08:26:14;29.00;39.80
7762;DHT22;3925;48.636;9.516;2023-04-15T08:28:41;29.60;39.50
7762;DHT22;3925;48.636;9.516;2023-04-15T08:31:08;31.20;38.60
7762;DHT22;3925;48.636;9.516;2023-04-15T08:33:35;32.20;34.30
7762;DHT22;3925;48.636;9.516;2023-04-15T08:36:04;33.30;34.00
7762;DHT22;3925;48.636;9.516;2023-04-15T08:38:32;34.40;31.30
7762;DHT22;3925;48.636;9.516;2023-04-15T08:41:01;35.10;29.50
7762;DHT22;3925;48.636;9.516;2023-04-15T08:43:34;35.50;28.80
7762;DHT22;3925;48.636;9.516;2023-04-15T08:46:04;35.60;28.60
7762;DHT22;3925;48.636;9.516;2023-04-15T08:48:32;35.90;27.10
7762;DHT22;3925;48.636;9.516;2023-04-15T08:50:59;35.80;26.10
7762;DHT22;3925;48.636;9.516;2023-04-15T08:53:28;34.70;26.30
7762;DHT22;3925;48.636;9.516;2023-04-15T08:55:57;34.00;27.00
7762;DHT22;3925;48.636;9.516;2023-04-15T08:58:26;32.80;29.00
7762;DHT22;3925;48.636;9.516;2023-04-15T09:00:53;33.60;28.40
7762;DHT22;3925;48.636;9.516;2023-04-15T09:03:20;34.40;26.80
7762;DHT22;3925;48.636;9.516;2023-04-15T09:05:49;35.50;26.40
7762;DHT22;3925;48.636;9.516;2023-04-15T09:08:16;36.00;25.20
7762;DHT22;3925;48.636;9.516;2023-04-15T09:10:44;34.20;25.40
7762;DHT22;3925;48.636;9.516;2023-04-15T09:13:11;31.80;27.30
7762;DHT22;3925;48.636;9.516;2023-04-15T09:15:38;31.80;27.80
7762;DHT22;3925;48.636;9.516;2023-04-15T09:18:05;31.40;28.30
7762;DHT22;3925;48.636;9.516;2023-04-15T09:20:38;30.80;29.10
7762;DHT22;3925;48.636;9.516;2023-04-15T09:23:11;30.20;30.00
7762;DHT22;3925;48.636;9.516;2023-04-15T09:25:39;28.20;31.00
7762;DHT22;3925;48.636;9.516;2023-04-15T09:28:09;27.90;32.80
7762;DHT22;3925;48.636;9.516;2023-04-15T09:30:36;27.10;32.80
7762;DHT22;3925;48.636;9.516;2023-04-15T09:33:03;26.00;35.40
7762;DHT22;3925;48.636;9.516;2023-04-15T09:35:33;24.80;38.50
7762;DHT22;3925;48.636;9.516;2023-04-15T09:38:04;23.90;38.50
7762;DHT22;3925;48.636;9.516;2023-04-15T09:40:33;23.10;40.90
7762;DHT22;3925;48.636;9.516;2023-04-15T09:43:01;21.90;40.40
7762;DHT22;3925;48.636;9.516;2023-04-15T09:45:31;20.40;42.20
7762;DHT22;3925;48.636;9.516;2023-04-15T09:47:59;19.60;43.50
7762;DHT22;3925;48.636;9.516;2023-04-15T09:50:41;19.70;47.50
7762;DHT22;3925;48.636;9.516;2023-04-15T09:53:08;22.10;44.30
7762;DHT22;3925;48.636;9.516;2023-04-15T09:55:36;22.50;41.00
7762;DHT22;3925;48.636;9.516;2023-04-15T09:58:07;23.20;40.80
7762;DHT22;3925;48.636;9.516;2023-04-15T10:00:36;25.70;40.30
7762;DHT22;3925;48.636;9.516;2023-04-15T10:03:04;26.90;38.00
7762;DHT22;3925;48.636;9.516;2023-04-15T10:05:32;28.30;36.30
7762;DHT22;3925;48.636;9.516;2023-04-15T10:08:00;28.30;32.60
7762;DHT22;3925;48.636;9.516;2023-04-15T10:10:28;27.60;34.50
7762;DHT22;3925;48.636;9.516;2023-04-15T10:12:58;27.80;34.30
7762;DHT22;3925;48.636;9.516;2023-04-15T10:15:27;27.60;33.50
7762;DHT22;3925;48.636;9.516;2023-04-15T10:17:56;28.30;33.10
7762;DHT22;3925;48.636;9.516;2023-04-15T10:20:24;28.40;33.50
7762;DHT22;3925;48.636;9.516;2023-04-15T10:22:52;28.00;34.40
7762;DHT22;3925;48.636;9.516;2023-04-15T10:25:19;27.40;35.70
7762;DHT22;3925;48.636;9.516;2023-04-15T10:27:47;27.70;35.70
7762;DHT22;3925;48.636;9.516;2023-04-15T10:30:14;27.30;35.40
7762;DHT22;3925;48.636;9.516;2023-04-15T10:32:42;27.50;35.10
7762;DHT22;3925;48.636;9.516;2023-04-15T10:35:11;26.00;34.40
7762;DHT22;3925;48.636;9.516;2023-04-15T10:37:39;24.80;35.00
7762;DHT22;3925;48.636;9.516;2023-04-15T10:40:26;24.70;35.50
7762;DHT22;3925;48.636;9.516;2023-04-15T10:42:53;24.80;36.90
7762;DHT22;3925;48.636;9.516;2023-04-15T10:45:21;25.80;36.40
7762;DHT22;3925;48.636;9.516;2023-04-15T10:47:51;24.60;36.40
7762;DHT22;3925;48.636;9.516;2023-04-15T10:50:20;24.30;37.10
7762;DHT22;3925;48.636;9.516;2023-04-15T10:52:49;23.60;37.80
7762;DHT22;3925;48.636;9.516;2023-04-15T10:55:19;22.60;38.70
7762;DHT22;3925;48.636;9.516;2023-04-15T10:57:48;22.70;40.20
7762;DHT22;3925;48.636;9.516;2023-04-15T11:00:18;23.20;39.30
7762;DHT22;3925;48.636;9.516;2023-04-15T11:02:46;23.10;39.50
7762;DHT22;3925;48.636;9.516;2023-04-15T11:05:14;23.10;38.00
7762;DHT22;3925;48.636;9.516;2023-04-15T11:07:54;22.70;38.90
7762;DHT22;3925;48.636;9.516;2023-04-15T11:10:51;22.20;40.30
7762;DHT22;3925;48.636;9.516;2023-04-15T11:13:28;21.20;40.70
7762;DHT22;3925;48.636;9.516;2023-04-15T11:15:59;20.90;42.90
7762;DHT22;3925;48.636;9.516;2023-04-15T11:18:28;20.30;42.00
7762;DHT22;3925;48.636;9.516;2023-04-15T11:20:58;19.40;43.90
7762;DHT22;3925;48.636;9.516;2023-04-15T11:23:32;19.60;45.10
7762;DHT22;3925;48.636;9.516;2023-04-15T11:26:01;19.40;44.00
7762;DHT22;3925;48.636;9.516;2023-04-15T11:28:31;19.40;44.10
7762;DHT22;3925;48.636;9.516;2023-04-15T11:31:05;19.50;44.90
7762;DHT22;3925;48.636;9.516;2023-04-15T11:33:33;19.50;44.40
7762;DHT22;3925;48.636;9.516;2023-04-15T11:36:00;19.90;45.30
7762;DHT22;3925;48.636;9.516;2023-04-15T11:38:29;19.80;46.00
7762;DHT22;3925;48.636;9.516;2023-04-15T11:40:57;19.90;45.10
7762;DHT22;3925;48.636;9.516;2023-04-15T11:43:23;18.90;45.30
7762;DHT22;3925;48.636;9.516;2023-04-15T11:45:54;18.80;47.70
7762;DHT22;3925;48.636;9.516;2023-04-15T11:48:22;18.90;48.90
7762;DHT22;3925;48.636;9.516;2023-04-15T11:50:54;19.10;50.10
7762;DHT22;3925;48.636;9.516;2023-04-15T11:53:21;19.40;48.10
7762;DHT22;3925;48.636;9.516;2023-04-15T11:55:51;19.40;47.90
7762;DHT22;3925;48.636;9.516;2023-04-15T11:58:20;19.30;48.00
7762;DHT22;3925;48.636;9.516;2023-04-15T12:00:49;19.30;47.70
7762;DHT22;3925;48.636;9.516;2023-04-15T12:03:24;19.30;47.00
7762;DHT22;3925;48.636;9.516;2023-04-15T12:06:09;18.80;46.10
7762;DHT22;3925;48.636;9.516;2023-04-15T12:11:34;19.40;45.70
7762;DHT22;3925;48.636;9.516;2023-04-15T12:14:07;19.00;45.10
7762;DHT22;3925;48.636;9.516;2023-04-15T12:16:36;19.20;45.50
7762;DHT22;3925;48.636;9.516;2023-04-15T12:19:05;19.50;45.30
7762;DHT22;3925;48.636;9.516;2023-04-15T12:21:34;19.00;43.80
7762;DHT22;3925;48.636;9.516;2023-04-15T12:24:05;18.40;43.90
7762;DHT22;3925;48.636;9.516;2023-04-15T12:26:36;19.00;47.00
7762;DHT22;3925;48.636;9.516;2023-04-15T12:29:06;18.70;44.50
7762;DHT22;3925;48.636;9.516;2023-04-15T12:31:34;18.20;44.60
7762;DHT22;3925;48.636;9.516;2023-04-15T12:34:01;17.70;47.80
7762;DHT22;3925;48.636;9.516;2023-04-15T12:36:29;17.80;48.80
7762;DHT22;3925;48.636;9.516;2023-04-15T12:39:01;17.50;49.10
7762;DHT22;3925;48.636;9.516;2023-04-15T12:41:28;16.90;49.30
7762;DHT22;3925;48.636;9.516;2023-04-15T12:43:56;16.20;50.90
7762;DHT22;3925;48.636;9.516;2023-04-15T12:46:23;16.10;54.00
7762;DHT22;3925;48.636;9.516;2023-04-15T12:48:50;15.80;58.50
7762;DHT22;3925;48.636;9.516;2023-04-15T12:51:18;15.40;60.60
7762;DHT22;3925;48.636;9.516;2023-04-15T12:53:46;15.10;62.30
7762;DHT22;3925;48.636;9.516;2023-04-15T12:56:14;14.90;66.90
7762;DHT22;3925;48.636;9.516;2023-04-15T12:58:41;14.70;70.00
7762;DHT22;3925;48.636;9.516;2023-04-15T13:01:10;14.40;72.00
7762;DHT22;3925;48.636;9.516;2023-04-15T13:03:36;13.60;72.20
7762;DHT22;3925;48.636;9.516;2023-04-15T13:06:03;13.20;77.30
7762;DHT22;3925;48.636;9.516;2023-04-15T13:08:30;12.90;78.50
7762;DHT22;3925;48.636;9.516;2023-04-15T13:10:57;12.80;86.30
7762;DHT22;3925;48.636;9.516;2023-04-15T13:13:24;13.10;90.30
7762;DHT22;3925;48.636;9.516;2023-04-15T13:15:51;13.20;92.90
7762;DHT22;3925;48.636;9.516;2023-04-15T13:18:19;13.00;93.10
7762;DHT22;3925;48.636;9.516;2023-04-15T13:20:48;12.90;93.40
7762;DHT22;3925;48.636;9.516;2023-04-15T13:23:14;12.80;94.40
7762;DHT22;3925;48.636;9.516;2023-04-15T13:25:42;12.70;94.10
7762;DHT22;3925;48.636;9.516;2023-04-15T13:28:10;12.60;93.50
7762;DHT22;3925;48.636;9.516;2023-04-15T13:30:37;12.50;93.80
7762;DHT22;3925;48.636;9.516;2023-04-15T13:33:04;12.40;94.20
7762;DHT22;3925;48.636;9.516;2023-04-15T13:35:32;12.40;94.10
7762;DHT22;3925;48.636;9.516;2023-04-15T13:37:59;12.30;95.30
7762;DHT22;3925;48.636;9.516;2023-04-15T13:40:26;12.20;96.40
7762;DHT22;3925;48.636;9.516;2023-04-15T13:42:53;12.20;95.90
7762;DHT22;3925;48.636;9.516;2023-04-15T13:45:20;12.40;96.70
7762;DHT22;3925;48.636;9.516;2023-04-15T13:47:47;12.40;95.40
7762;DHT22;3925;48.636;9.516;2023-04-15T13:50:14;12.60;95.00
7762;DHT22;3925;48.636;9.516;2023-04-15T13:52:42;12.30;92.40
7762;DHT22;3925;48.636;9.516;2023-04-15T13:55:09;12.20;93.00
7762;DHT22;3925;48.636;9.516;2023-04-15T13:57:36;12.30;93.20
7762;DHT22;3925;48.636;9.516;2023-04-15T14:00:04;12.40;92.10
7762;DHT22;3925;48.636;9.516;2023-04-15T14:02:31;12.50;89.70
7762;DHT22;3925;48.636;9.516;2023-04-15T14:04:58;12.60;91.50
7762;DHT22;3925;48.636;9.516;2023-04-15T14:07:25;12.60;84.30
7762;DHT22;3925;48.636;9.516;2023-04-15T14:09:54;12.80;87.00
7762;DHT22;3925;48.636;9.516;2023-04-15T14:12:21;13.00;87.90
7762;DHT22;3925;48.636;9.516;2023-04-15T14:14:47;13.10;82.70
7762;DHT22;3925;48.636;9.516;2023-04-15T14:17:14;13.20;82.90
7762;DHT22;3925;48.636;9.516;2023-04-15T14:19:41;12.90;80.00
7762;DHT22;3925;48.636;9.516;2023-04-15T14:22:08;13.00;82.40
7762;DHT22;3925;48.636;9.516;2023-04-15T14:24:35;13.00;80.10
7762;DHT22;3925;48.636;9.516;2023-04-15T14:27:03;12.90;84.00
7762;DHT22;3925;48.636;9.516;2023-04-15T14:29:30;12.90;83.30
7762;DHT22;3925;48.636;9.516;2023-04-15T14:31:57;12.70;80.40
7762;DHT22;3925;48.636;9.516;2023-04-15T14:34:24;12.70;78.10
7762;DHT22;3925;48.636;9.516;2023-04-15T14:36:51;12.70;80.20
7762;DHT22;3925;48.636;9.516;2023-04-15T14:39:18;12.70;79.20
7762;DHT22;3925;48.636;9.516;2023-04-15T14:41:45;12.80;80.50
7762;DHT22;3925;48.636;9.516;2023-04-15T14:44:14;13.00;78.90
7762;DHT22;3925;48.636;9.516;2023-04-15T14:46:41;13.10;80.30
7762;DHT22;3925;48.636;9.516;2023-04-15T14:49:08;13.20;78.90
7762;DHT22;3925;48.636;9.516;2023-04-15T14:51:34;13.30;78.90
7762;DHT22;3925;48.636;9.516;2023-04-15T14:54:01;13.20;79.40
7762;DHT22;3925;48.636;9.516;2023-04-15T14:56:28;13.20;81.50
7762;DHT22;3925;48.636;9.516;2023-04-15T14:58:55;13.20;79.80
7762;DHT22;3925;48.636;9.516;2023-04-15T15:01:23;13.30;80.50
7762;DHT22;3925;48.636;9.516;2023-04-15T15:03:50;13.30;81.60
7762;DHT22;3925;48.636;9.516;2023-04-15T15:06:18;13.40;82.20
7762;DHT22;3925;48.636;9.516;2023-04-15T15:08:45;13.30;78.30
7762;DHT22;3925;48.636;9.516;2023-04-15T15:11:12;13.20;77.30
7762;DHT22;3925;48.636;9.516;2023-04-15T15:13:39;13.10;74.60
7762;DHT22;3925;48.636;9.516;2023-04-15T15:16:06;13.00;74.10
7762;DHT22;3925;48.636;9.516;2023-04-15T15:18:34;13.00;77.30
7762;DHT22;3925;48.636;9.516;2023-04-15T15:21:01;12.90;76.90
7762;DHT22;3925;48.636;9.516;2023-04-15T15:23:30;12.80;79.10
7762;DHT22;3925;48.636;9.516;2023-04-15T15:25:57;12.60;77.00
7762;DHT22;3925;48.636;9.516;2023-04-15T15:28:24;12.30;74.80
7762;DHT22;3925;48.636;9.516;2023-04-15T15:30:51;12.20;77.90
7762;DHT22;3925;48.636;9.516;2023-04-15T15:33:18;12.00;78.10
7762;DHT22;3925;48.636;9.516;2023-04-15T15:35:46;11.80;77.80
7762;DHT22;3925;48.636;9.516;2023-04-15T15:38:13;11.70;79.60
7762;DHT22;3925;48.636;9.516;2023-04-15T15:40:40;11.70;79.30
7762;DHT22;3925;48.636;9.516;2023-04-15T15:43:07;11.80;82.70
7762;DHT22;3925;48.636;9.516;2023-04-15T15:45:34;11.70;82.80
7762;DHT22;3925;48.636;9.516;2023-04-15T15:48:01;11.70;83.70
7762;DHT22;3925;48.636;9.516;2023-04-15T15:50:28;11.70;83.50
7762;DHT22;3925;48.636;9.516;2023-04-15T15:52:56;11.60;84.40
7762;DHT22;3925;48.636;9.516;2023-04-15T15:55:24;11.60;85.40
7762;DHT22;3925;48.636;9.516;2023-04-15T15:57:51;11.50;85.90
7762;DHT22;3925;48.636;9.516;2023-04-15T16:00:18;11.40;86.70
7762;DHT22;3925;48.636;9.516;2023-04-15T16:02:45;11.30;86.80
7762;DHT22;3925;48.636;9.516;2023-04-15T16:05:12;11.40;88.40
7762;DHT22;3925;48.636;9.516;2023-04-15T16:07:40;11.10;90.10
7762;DHT22;3925;48.636;9.516;2023-04-15T16:10:09;11.10;90.10
7762;DHT22;3925;48.636;9.516;2023-04-15T16:12:37;11.20;90.70
7762;DHT22;3925;48.636;9.516;2023-04-15T16:15:04;11.20;90.70
7762;DHT22;3925;48.636;9.516;2023-04-15T16:17:31;11.20;90.60